createdAt,value
2018-04-08T00:01:34.697Z,13.00
2018-04-08T00:04:02.194Z,13.00
2018-04-08T00:06:29.657Z,13.10
2018-04-08T00:08:57.126Z,13.00
2018-04-08T00:11:24.605Z,12.80
2018-04-08T00:13:52.071Z,12.60
2018-04-08T00:16:19.566Z,12.40
2018-04-08T00:18:47.029Z,12.40
2018-04-08T00:21:14.515Z,12.40
2018-04-08T00:23:41.978Z,12.40
2018-04-08T00:26:09.458Z,12.40
2018-04-08T00:28:36.935Z,12.40
2018-04-08T00:31:05.230Z,12.60
2018-04-08T00:33:32.722Z,12.50
2018-04-08T00:36:00.202Z,12.90
2018-04-08T00:38:28.434Z,13.30
2018-04-08T00:40:55.922Z,13.20
2018-04-08T00:43:23.386Z,13.30
2018-04-08T00:45:50.872Z,13.40
2018-04-08T00:48:18.340Z,13.20
2018-04-08T00:50:45.882Z,13.10
2018-04-08T00:53:13.378Z,12.90
2018-04-08T00:55:40.842Z,12.90
2018-04-08T00:58:08.344Z,13.20
2018-04-08T01:00:36.573Z,13.10
2018-04-08T01:03:04.070Z,13.10
2018-04-08T01:05:32.297Z,13.00
2018-04-08T01:08:00.095Z,13.00
2018-04-08T01:10:27.559Z,12.90
2018-04-08T01:12:55.794Z,12.80
2018-04-08T01:15:23.279Z,12.80
2018-04-08T01:17:50.751Z,13.00
2018-04-08T01:20:19.006Z,13.10
2018-04-08T01:22:46.478Z,13.10
2018-04-08T01:25:14.734Z,12.70
2018-04-08T01:27:42.194Z,12.70
2018-04-08T01:30:09.670Z,12.50
2018-04-08T01:32:37.969Z,12.50
2018-04-08T01:35:05.530Z,12.50
2018-04-08T01:37:33.011Z,12.50
2018-04-08T01:40:00.486Z,12.60
2018-04-08T01:42:27.982Z,12.90
2018-04-08T01:44:55.457Z,13.00
2018-04-08T01:47:22.938Z,13.10
2018-04-08T01:49:50.466Z,13.20
2018-04-08T01:52:17.934Z,13.20
2018-04-08T01:54:45.419Z,13.20
2018-04-08T01:57:12.901Z,13.10
2018-04-08T01:59:41.154Z,13.20
2018-04-08T02:02:08.636Z,13.20
2018-04-08T02:04:36.866Z,13.10
2018-04-08T02:07:04.330Z,13.10
2018-04-08T02:09:31.810Z,13.00
2018-04-08T02:11:59.278Z,13.00
2018-04-08T02:14:27.526Z,12.80
2018-04-08T02:16:55.015Z,12.70
2018-04-08T02:19:23.246Z,12.60
2018-04-08T02:21:50.740Z,12.60
2018-04-08T02:24:18.969Z,12.40
2018-04-08T02:26:46.462Z,12.30
2018-04-08T02:29:14.695Z,12.10
2018-04-08T02:31:42.163Z,12.10
2018-04-08T02:34:09.642Z,11.90
2018-04-08T02:36:37.110Z,11.90
2018-04-08T02:39:04.963Z,11.80
2018-04-08T02:41:32.448Z,11.90
2018-04-08T02:43:59.913Z,11.90
2018-04-08T02:46:27.414Z,11.90
2018-04-08T02:48:54.879Z,12.00
2018-04-08T02:51:22.387Z,12.10
2018-04-08T02:53:49.871Z,12.10
2018-04-08T02:56:17.339Z,12.10
2018-04-08T02:58:44.823Z,12.10
2018-04-08T03:01:13.058Z,12.00
2018-04-08T03:03:40.547Z,12.10
2018-04-08T03:06:08.779Z,11.80
2018-04-08T03:08:36.242Z,11.80
2018-04-08T03:11:03.730Z,11.70
2018-04-08T03:13:31.190Z,11.70
2018-04-08T03:15:59.766Z,11.60
2018-04-08T03:18:27.263Z,11.60
2018-04-08T03:20:54.726Z,11.70
2018-04-08T03:23:22.230Z,11.80
2018-04-08T03:25:49.690Z,11.90
2018-04-08T03:28:17.188Z,11.90
2018-04-08T03:30:44.651Z,11.90
2018-04-08T03:33:12.304Z,12.00
2018-04-08T03:35:39.786Z,12.00
2018-04-08T03:38:07.250Z,12.10
2018-04-08T03:40:34.738Z,12.00
2018-04-08T03:43:02.974Z,11.80
2018-04-08T03:45:30.446Z,11.80
2018-04-08T03:47:59.439Z,11.80
2018-04-08T03:50:26.918Z,11.80
2018-04-08T03:52:55.167Z,11.90
2018-04-08T03:55:23.398Z,12.00
2018-04-08T03:57:50.873Z,11.90
2018-04-08T04:00:18.353Z,11.90
2018-04-08T04:02:45.818Z,11.70
2018-04-08T04:05:13.377Z,11.50
2018-04-08T04:07:40.842Z,11.30
2018-04-08T04:10:09.074Z,11.10
2018-04-08T04:12:36.554Z,11.00
2018-04-08T04:15:04.019Z,11.00
2018-04-08T04:17:31.501Z,11.10
2018-04-08T04:20:11.775Z,11.10
2018-04-08T04:22:51.270Z,11.10
2018-04-08T04:25:30.550Z,11.00
2018-04-08T04:27:58.034Z,11.00
2018-04-08T04:30:25.509Z,10.90
2018-04-08T04:32:52.980Z,10.80
2018-04-08T04:35:21.230Z,10.80
2018-04-08T04:37:48.739Z,10.80
2018-04-08T04:40:16.193Z,10.80
2018-04-08T04:42:43.662Z,10.80
2018-04-08T04:45:11.132Z,10.90
2018-04-08T04:47:38.626Z,10.90
2018-04-08T04:50:06.099Z,10.90
2018-04-08T04:52:34.345Z,10.90
2018-04-08T04:55:02.034Z,10.90
2018-04-08T04:57:29.526Z,10.90
2018-04-08T04:59:57.026Z,11.00
2018-04-08T05:02:25.266Z,11.10
2018-04-08T05:04:52.777Z,11.10
2018-04-08T05:07:21.002Z,11.10
2018-04-08T05:09:48.471Z,11.10
2018-04-08T05:12:15.950Z,11.10
2018-04-08T05:14:43.418Z,11.20
2018-04-08T05:17:11.670Z,11.40
2018-04-08T05:19:39.134Z,11.30
2018-04-08T05:22:06.597Z,11.50
2018-04-08T05:24:34.850Z,11.70
2018-04-08T05:27:02.326Z,11.70
2018-04-08T05:29:30.582Z,11.90
2018-04-08T05:31:58.054Z,11.90
2018-04-08T05:34:26.286Z,12.40
2018-04-08T05:36:53.767Z,12.30
2018-04-08T05:39:21.230Z,12.60
2018-04-08T05:41:48.719Z,12.80
2018-04-08T05:44:16.207Z,12.90
2018-04-08T05:46:43.678Z,13.90
2018-04-08T05:49:11.163Z,13.10
2018-04-08T05:51:38.622Z,13.20
2018-04-08T05:54:06.886Z,13.40
2018-04-08T05:56:34.353Z,13.40
2018-04-08T05:59:02.662Z,13.60
2018-04-08T06:01:30.142Z,13.60
2018-04-08T06:03:57.622Z,13.70
2018-04-08T06:06:25.878Z,13.80
2018-04-08T06:08:53.347Z,13.80
2018-04-08T06:11:20.810Z,13.90
2018-04-08T06:13:48.290Z,14.20
2018-04-08T06:16:16.526Z,14.60
2018-04-08T06:18:44.354Z,14.60
2018-04-08T06:21:11.822Z,14.80
2018-04-08T06:23:39.291Z,15.00
2018-04-08T06:26:06.770Z,15.00
2018-04-08T06:28:34.234Z,15.10
2018-04-08T06:31:02.529Z,15.00
2018-04-08T06:33:30.758Z,15.00
2018-04-08T06:35:58.226Z,15.00
2018-04-08T06:38:25.709Z,15.10
2018-04-08T06:40:53.947Z,15.10
2018-04-08T06:43:21.435Z,15.10
2018-04-08T06:45:49.666Z,15.20
2018-04-08T06:48:17.155Z,15.20
2018-04-08T06:50:44.626Z,15.30
2018-04-08T06:53:12.858Z,15.50
2018-04-08T06:55:40.329Z,15.50
2018-04-08T06:58:07.814Z,15.70
2018-04-08T07:00:36.090Z,16.00
2018-04-08T07:03:04.810Z,16.10
2018-04-08T07:05:32.275Z,16.10
2018-04-08T07:07:59.734Z,16.10
2018-04-08T07:10:27.216Z,16.10
2018-04-08T07:12:54.679Z,16.00
2018-04-08T07:15:22.170Z,15.80
2018-04-08T07:17:49.654Z,15.80
2018-04-08T07:20:17.912Z,15.80
2018-04-08T07:22:45.398Z,15.80
2018-04-08T07:25:12.892Z,15.80
2018-04-08T07:27:41.140Z,15.70
2018-04-08T07:30:08.617Z,15.70
2018-04-08T07:32:36.082Z,15.80
2018-04-08T07:35:04.327Z,15.90
2018-04-08T07:37:31.794Z,15.80
2018-04-08T07:39:59.278Z,15.90
2018-04-08T07:42:26.758Z,16.00
2018-04-08T07:44:54.228Z,16.00
2018-04-08T07:47:21.706Z,16.10
2018-04-08T07:49:49.176Z,16.20
2018-04-08T07:52:17.500Z,16.50
2018-04-08T07:54:44.982Z,16.50
2018-04-08T07:57:12.509Z,16.60
2018-04-08T07:59:39.986Z,16.60
2018-04-08T08:02:07.524Z,16.80
2018-04-08T08:04:35.134Z,17.10
2018-04-08T08:07:02.618Z,17.20
2018-04-08T08:09:30.850Z,17.70
2018-04-08T08:11:58.375Z,17.60
2018-04-08T08:14:25.848Z,18.00
2018-04-08T08:16:53.339Z,18.10
2018-04-08T08:19:20.806Z,18.40
2018-04-08T08:21:49.034Z,18.30
2018-04-08T08:24:16.522Z,18.30
2018-04-08T08:26:43.986Z,18.40
2018-04-08T08:29:12.299Z,18.20
2018-04-08T08:31:39.855Z,18.20
2018-04-08T08:34:07.322Z,18.10
2018-04-08T08:36:38.295Z,18.10
2018-04-08T08:39:06.703Z,18.60
2018-04-08T08:41:34.219Z,18.50
2018-04-08T08:44:04.172Z,19.00
2018-04-08T08:46:31.638Z,18.90
2018-04-08T08:48:59.167Z,19.20
2018-04-08T08:51:26.630Z,19.50
2018-04-08T08:53:54.150Z,19.90
2018-04-08T08:56:21.670Z,19.80
2018-04-08T08:58:49.138Z,19.90
2018-04-08T09:01:16.623Z,19.90
2018-04-08T09:03:44.094Z,20.10
2018-04-08T09:06:11.582Z,20.10
2018-04-08T09:08:39.081Z,20.30
2018-04-08T09:11:06.548Z,20.30
2018-04-08T09:13:34.035Z,20.90
2018-04-08T09:16:01.506Z,21.30
2018-04-08T09:18:29.011Z,21.70
2018-04-08T09:21:11.375Z,21.90
2018-04-08T09:23:44.445Z,22.00
2018-04-08T09:26:11.960Z,22.00
2018-04-08T09:28:39.422Z,21.80
2018-04-08T09:31:06.904Z,21.70
2018-04-08T09:33:34.374Z,21.70
2018-04-08T09:36:01.875Z,22.00
2018-04-08T09:38:29.341Z,22.10
2018-04-08T09:40:56.815Z,22.20
2018-04-08T09:43:24.322Z,22.30
2018-04-08T09:45:52.555Z,21.80
2018-04-08T09:48:20.062Z,21.80
2018-04-08T09:50:48.293Z,21.90
2018-04-08T09:53:15.758Z,21.80
2018-04-08T09:55:43.242Z,21.00
2018-04-08T09:58:13.490Z,20.10
2018-04-08T10:00:47.053Z,20.10
2018-04-08T10:06:15.514Z,20.20
2018-04-08T10:08:42.997Z,20.60
2018-04-08T10:11:10.475Z,21.10
2018-04-08T10:13:38.726Z,21.70
2018-04-08T10:16:06.194Z,21.70
2018-04-08T10:18:34.461Z,22.00
2018-04-08T10:21:01.930Z,22.10
2018-04-08T10:23:30.168Z,22.10
2018-04-08T10:25:57.659Z,22.10
2018-04-08T10:28:25.922Z,23.10
2018-04-08T10:30:53.407Z,23.00
2018-04-08T10:33:20.878Z,22.90
2018-04-08T10:35:48.350Z,23.00
2018-04-08T10:38:15.890Z,23.20
2018-04-08T10:40:43.356Z,23.70
2018-04-08T10:43:10.846Z,24.10
2018-04-08T10:45:38.318Z,24.40
2018-04-08T10:48:05.795Z,24.40
2018-04-08T10:50:34.047Z,23.50
2018-04-08T10:53:01.518Z,23.40
2018-04-08T10:55:29.778Z,23.30
2018-04-08T10:57:57.263Z,23.20
2018-04-08T11:00:24.735Z,23.40
2018-04-08T11:02:52.226Z,23.30
2018-04-08T11:05:19.692Z,22.80
2018-04-08T11:07:47.179Z,22.40
2018-04-08T11:10:15.419Z,22.40
2018-04-08T11:12:42.890Z,22.40
2018-04-08T11:15:11.142Z,22.70
2018-04-08T11:17:38.619Z,22.60
2018-04-08T11:20:06.220Z,23.30
2018-04-08T11:22:33.715Z,24.20
2018-04-08T11:25:01.158Z,24.30
2018-04-08T11:27:28.650Z,24.60
2018-04-08T11:29:56.883Z,26.20
2018-04-08T11:32:24.346Z,26.20
2018-04-08T11:34:51.842Z,27.60
2018-04-08T11:37:20.070Z,28.70
2018-04-08T11:39:47.554Z,28.60
2018-04-08T11:42:15.023Z,28.40
2018-04-08T11:44:43.258Z,26.80
2018-04-08T11:47:10.768Z,26.70
2018-04-08T11:49:38.254Z,26.10
2018-04-08T11:52:05.748Z,25.70
2018-04-08T11:54:33.214Z,25.90
2018-04-08T11:57:00.690Z,26.00
2018-04-08T11:59:28.992Z,27.20
2018-04-08T12:01:56.465Z,27.20
2018-04-08T12:04:23.952Z,26.70
2018-04-08T12:06:51.424Z,26.50
2018-04-08T12:09:19.655Z,25.30
2018-04-08T12:11:47.144Z,25.30
2018-04-08T12:14:14.613Z,25.40
2018-04-08T12:16:43.224Z,25.00
2018-04-08T12:19:10.690Z,25.00
2018-04-08T12:21:38.166Z,24.80
2018-04-08T12:24:05.656Z,25.00
2018-04-08T12:26:33.118Z,24.70
2018-04-08T12:29:01.374Z,24.60
2018-04-08T12:31:28.838Z,24.60
2018-04-08T12:33:56.314Z,24.80
2018-04-08T12:36:24.557Z,25.00
2018-04-08T12:38:52.040Z,25.00
2018-04-08T12:41:20.290Z,25.00
2018-04-08T12:43:47.769Z,25.00
2018-04-08T12:46:15.998Z,24.40
2018-04-08T12:48:43.478Z,24.40
2018-04-08T12:51:10.949Z,24.50
2018-04-08T12:53:39.215Z,24.60
2018-04-08T12:56:06.678Z,24.60
2018-04-08T12:58:34.910Z,24.40
2018-04-08T13:01:02.394Z,24.40
2018-04-08T13:03:29.915Z,24.40
2018-04-08T13:05:57.462Z,24.60
2018-04-08T13:08:24.934Z,24.90
2018-04-08T13:10:52.413Z,25.20
2018-04-08T13:13:19.896Z,25.10
2018-04-08T13:15:48.127Z,24.80
2018-04-08T13:18:15.619Z,24.80
2018-04-08T13:20:43.113Z,24.90
2018-04-08T13:23:10.578Z,25.00
2018-04-08T13:25:38.065Z,25.10
2018-04-08T13:28:05.534Z,25.00
2018-04-08T13:30:33.031Z,24.70
2018-04-08T13:33:00.511Z,24.60
2018-04-08T13:35:27.978Z,24.70
2018-04-08T13:37:55.462Z,24.80
2018-04-08T13:40:22.939Z,24.70
2018-04-08T13:42:51.526Z,24.40
2018-04-08T13:45:19.757Z,24.50
2018-04-08T13:47:47.231Z,24.40
2018-04-08T13:50:15.696Z,24.60
2018-04-08T13:52:43.177Z,25.00
2018-04-08T13:55:10.675Z,25.20
2018-04-08T13:57:38.143Z,25.30
2018-04-08T14:00:05.614Z,25.00
2018-04-08T14:02:33.094Z,25.10
2018-04-08T14:05:00.574Z,25.10
2018-04-08T14:07:28.861Z,25.10
2018-04-08T14:09:56.345Z,25.00
2018-04-08T14:12:23.893Z,25.20
2018-04-08T14:14:51.390Z,25.10
2018-04-08T14:17:20.365Z,25.40
2018-04-08T14:19:47.858Z,25.40
2018-04-08T14:22:16.097Z,25.50
2018-04-08T14:24:43.597Z,25.50
2018-04-08T14:27:11.067Z,25.30
2018-04-08T14:29:38.538Z,25.40
2018-04-08T14:32:06.063Z,25.30
2018-04-08T14:34:34.298Z,25.20
2018-04-08T14:37:01.771Z,25.20
2018-04-08T14:39:29.259Z,25.20
2018-04-08T14:41:56.739Z,25.00
2018-04-08T14:44:24.255Z,24.90
2018-04-08T14:46:51.721Z,24.60
2018-04-08T14:49:19.958Z,24.60
2018-04-08T14:51:47.449Z,24.60
2018-04-08T14:54:15.756Z,24.80
2018-04-08T14:56:43.489Z,24.80
2018-04-08T14:59:11.722Z,24.80
2018-04-08T15:01:46.661Z,24.80
2018-04-08T15:04:06.690Z,24.90
2018-04-08T15:06:34.154Z,24.50
2018-04-08T15:09:01.646Z,24.50
2018-04-08T15:11:29.114Z,24.70
2018-04-08T15:13:56.586Z,24.90
2018-04-08T15:16:24.067Z,25.20
2018-04-08T15:18:51.536Z,25.30
2018-04-08T15:21:19.027Z,25.20
2018-04-08T15:23:46.553Z,25.20
2018-04-08T15:26:14.021Z,25.20
2018-04-08T15:28:41.510Z,25.20
2018-04-08T15:31:08.974Z,25.30
2018-04-08T15:33:36.463Z,25.20
2018-04-08T15:36:03.933Z,25.20
2018-04-08T15:38:31.401Z,24.90
2018-04-08T15:40:58.906Z,24.80
2018-04-08T15:43:27.148Z,24.80
2018-04-08T15:45:54.647Z,24.80
2018-04-08T15:48:22.878Z,24.70
2018-04-08T15:50:50.345Z,24.70
2018-04-08T15:53:17.826Z,24.80
2018-04-08T15:55:46.066Z,24.40
2018-04-08T15:58:13.592Z,24.40
2018-04-08T16:00:41.058Z,24.40
2018-04-08T16:03:08.546Z,24.40
2018-04-08T16:05:36.026Z,24.30
2018-04-08T16:08:04.274Z,24.20
2018-04-08T16:10:31.764Z,24.20
2018-04-08T16:12:59.995Z,24.30
2018-04-08T16:15:27.513Z,24.30
2018-04-08T16:17:55.754Z,24.30
2018-04-08T16:20:23.374Z,24.30
2018-04-08T16:22:50.878Z,24.30
2018-04-08T16:25:20.176Z,24.30
2018-04-08T16:27:48.431Z,24.40
2018-04-08T16:30:15.934Z,24.40
2018-04-08T16:32:43.402Z,24.40
2018-04-08T16:35:11.222Z,24.20
2018-04-08T16:37:38.706Z,24.00
2018-04-08T16:40:06.175Z,23.80
2018-04-08T16:42:33.661Z,23.60
2018-04-08T16:45:01.126Z,23.50
2018-04-08T16:47:28.622Z,23.30
2018-04-08T16:49:56.878Z,23.10
2018-04-08T16:52:24.362Z,23.10
2018-04-08T16:54:51.852Z,23.10
2018-04-08T16:57:19.324Z,23.00
2018-04-08T16:59:46.815Z,22.90
2018-04-08T17:02:15.054Z,22.60
2018-04-08T17:04:42.542Z,22.60
2018-04-08T17:07:10.790Z,22.40
2018-04-08T17:09:38.270Z,22.40
2018-04-08T17:12:06.506Z,22.30
2018-04-08T17:14:33.998Z,22.20
2018-04-08T17:17:01.469Z,22.20
2018-04-08T17:19:29.727Z,22.00
2018-04-08T17:21:57.223Z,22.00
2018-04-08T17:24:24.690Z,22.00
2018-04-08T17:26:52.198Z,21.90
2018-04-08T17:29:19.671Z,21.90
2018-04-08T17:31:48.113Z,21.90
2018-04-08T17:34:15.639Z,21.80
2018-04-08T17:36:43.121Z,21.80
2018-04-08T17:39:10.610Z,21.70
2018-04-08T17:41:38.083Z,21.60
2018-04-08T17:44:05.579Z,21.50
2018-04-08T17:46:33.050Z,21.50
2018-04-08T17:49:00.525Z,21.30
2018-04-08T17:51:28.027Z,21.30
2018-04-08T17:53:56.270Z,21.20
2018-04-08T17:56:23.757Z,21.20
2018-04-08T17:58:51.996Z,21.00
2018-04-08T18:01:22.363Z,20.90
2018-04-08T18:03:49.907Z,20.90
2018-04-08T18:06:17.467Z,20.90
2018-04-08T18:08:44.995Z,20.70
2018-04-08T18:11:19.610Z,20.60
2018-04-08T18:13:47.112Z,20.60
2018-04-08T18:16:14.582Z,20.40
2018-04-08T18:18:43.567Z,20.30
2018-04-08T18:21:11.076Z,20.30
2018-04-08T18:23:38.577Z,20.30
2018-04-08T18:26:06.817Z,20.20
2018-04-08T18:28:41.815Z,20.00
2018-04-08T18:31:09.314Z,20.00
2018-04-08T18:33:37.575Z,19.90
2018-04-08T18:36:05.081Z,19.90
2018-04-08T18:38:34.697Z,19.80
2018-04-08T18:41:03.745Z,19.70
2018-04-08T18:43:31.241Z,19.70
2018-04-08T18:45:58.706Z,19.60
2018-04-08T18:48:26.194Z,19.60
2018-04-08T18:50:53.695Z,19.40
2018-04-08T18:53:21.934Z,19.20
2018-04-08T18:55:49.434Z,19.20
2018-04-08T18:58:16.899Z,19.10
2018-04-08T19:00:44.375Z,19.00
2018-04-08T19:03:12.167Z,19.10
2018-04-08T19:05:39.637Z,19.10
2018-04-08T19:08:07.897Z,19.20
2018-04-08T19:10:35.365Z,19.10
2018-04-08T19:13:02.839Z,19.20
2018-04-08T19:15:30.334Z,19.20
2018-04-08T19:18:02.742Z,19.10
2018-04-08T19:20:30.350Z,19.00
2018-04-08T19:22:57.823Z,18.90
2018-04-08T19:25:25.294Z,18.80
2018-04-08T19:27:52.801Z,18.80
2018-04-08T19:30:21.535Z,18.60
2018-04-08T19:32:50.654Z,18.60
2018-04-08T19:35:18.146Z,18.60
2018-04-08T19:37:45.610Z,18.70
2018-04-08T19:40:13.112Z,18.60
2018-04-08T19:42:40.582Z,18.40
2018-04-08T19:45:08.843Z,18.20
2018-04-08T19:47:36.310Z,18.20
2018-04-08T19:50:03.791Z,18.00
2018-04-08T19:52:31.302Z,17.90
2018-04-08T19:54:58.771Z,17.80
2018-04-08T19:57:26.258Z,17.80
2018-04-08T19:59:54.559Z,17.90
2018-04-08T20:02:22.155Z,17.90
2018-04-08T20:04:49.667Z,17.80
2018-04-08T20:07:17.882Z,17.80
2018-04-08T20:09:45.370Z,17.80
2018-04-08T20:12:13.607Z,17.80
2018-04-08T20:14:41.078Z,17.70
2018-04-08T20:17:08.562Z,17.60
2018-04-08T20:19:36.051Z,17.60
2018-04-08T20:22:03.871Z,17.60
2018-04-08T20:24:31.342Z,17.60
2018-04-08T20:26:58.819Z,17.50
2018-04-08T20:29:26.310Z,17.40
2018-04-08T20:31:53.780Z,17.30
2018-04-08T20:34:21.270Z,17.30
2018-04-08T20:36:49.510Z,17.00
2018-04-08T20:39:16.974Z,17.00
2018-04-08T20:41:44.474Z,16.90
2018-04-08T20:44:11.954Z,16.90
2018-04-08T20:46:39.446Z,16.70
2018-04-08T20:49:06.934Z,16.50
2018-04-08T20:51:35.154Z,16.20
2018-04-08T20:54:02.639Z,16.20
2018-04-08T20:56:30.102Z,16.10
2018-04-08T20:58:58.358Z,16.00
2018-04-08T21:01:27.342Z,15.80
2018-04-08T21:03:54.835Z,15.80
2018-04-08T21:06:23.095Z,15.60
2018-04-08T21:08:50.561Z,15.50
2018-04-08T21:11:18.815Z,15.30
2018-04-08T21:13:46.288Z,15.30
2018-04-08T21:16:14.518Z,15.20
2018-04-08T21:18:42.003Z,15.20
2018-04-08T21:21:09.474Z,15.10
2018-04-08T21:23:37.731Z,15.10
2018-04-08T21:26:05.205Z,15.00
2018-04-08T21:28:33.451Z,14.80
2018-04-08T21:31:00.930Z,14.80
2018-04-08T21:33:29.161Z,14.80
2018-04-08T21:35:56.651Z,14.80
2018-04-08T21:38:24.118Z,14.70
2018-04-08T21:40:52.370Z,14.50
2018-04-08T21:43:19.867Z,14.40
2018-04-08T21:45:47.337Z,14.40
2018-04-08T21:48:14.806Z,14.30
2018-04-08T21:50:42.286Z,14.50
2018-04-08T21:53:09.754Z,14.70
2018-04-08T21:55:37.249Z,14.70
2018-04-08T21:58:04.757Z,14.50
2018-04-08T22:00:32.226Z,14.30
2018-04-08T22:02:59.724Z,14.20
2018-04-08T22:05:27.186Z,14.20
2018-04-08T22:07:54.654Z,14.30
2018-04-08T22:10:22.201Z,14.40
2018-04-08T22:12:49.678Z,14.40
2018-04-08T22:15:17.207Z,14.30
2018-04-08T22:17:44.679Z,14.30
2018-04-08T22:20:12.147Z,14.30
2018-04-08T22:22:39.634Z,14.40
2018-04-08T22:25:07.134Z,14.30
2018-04-08T22:27:34.625Z,14.30
2018-04-08T22:30:02.102Z,14.30
2018-04-08T22:32:29.571Z,14.30
2018-04-08T22:34:57.834Z,14.00
2018-04-08T22:37:25.301Z,14.00
2018-04-08T22:39:52.814Z,13.90
2018-04-08T22:42:20.288Z,13.90
2018-04-08T22:44:47.750Z,13.80
2018-04-08T22:47:15.234Z,13.70
2018-04-08T22:49:43.470Z,13.60
2018-04-08T22:52:10.957Z,13.60
2018-04-08T22:54:38.831Z,13.70
2018-04-08T22:57:07.074Z,13.50
2018-04-08T22:59:34.559Z,13.40
2018-04-08T23:02:02.798Z,13.40
2018-04-08T23:04:30.319Z,13.40
2018-04-08T23:06:57.806Z,13.40
2018-04-08T23:09:25.309Z,13.30
2018-04-08T23:11:52.807Z,13.30
2018-04-08T23:14:20.282Z,13.10
2018-04-08T23:16:47.775Z,13.00
2018-04-08T23:19:16.010Z,12.90
2018-04-08T23:21:43.486Z,12.90
2018-04-08T23:24:10.973Z,12.90
2018-04-08T23:26:38.442Z,12.80
2018-04-08T23:29:05.938Z,12.80
2018-04-08T23:31:33.413Z,12.80
2018-04-08T23:34:00.878Z,12.80
2018-04-08T23:36:29.126Z,12.70
2018-04-08T23:38:56.594Z,12.70
2018-04-08T23:41:24.346Z,12.70
2018-04-08T23:43:51.826Z,12.70
2018-04-08T23:46:20.066Z,12.80
2018-04-08T23:48:47.591Z,12.80
2018-04-08T23:51:15.062Z,12.90
2018-04-08T23:53:42.549Z,12.80
2018-04-08T23:56:10.027Z,12.80
2018-04-08T23:58:38.257Z,12.70
